sensor_id;sensor_type;location;lat;lon;timestamp;temperature;humidity
41481;DHT22;27217;51.220;5.308;2023-07-13T00:00:33;16.80;99.90
41481;DHT22;27217;51.220;5.308;2023-07-13T00:02:59;16.70;99.90
41481;DHT22;27217;51.220;5.308;2023-07-13T00:05:25;16.50;99.90
41481;DHT22;27217;51.220;5.308;2023-07-13T00:07:52;16.30;99.90
41481;DHT22;27217;51.220;5.308;2023-07-13T00:10:19;16.60;99.90
41481;DHT22;27217;51.220;5.308;2023-07-13T00:12:45;16.30;99.90
41481;DHT22;27217;51.220;5.308;2023-07-13T00:15:17;16.40;99.90
41481;DHT22;27217;51.220;5.308;2023-07-13T00:17:51;16.40;99.90
41481;DHT22;27217;51.220;5.308;2023-07-13T00:20:20;16.60;99.90
41481;DHT22;27217;51.220;5.308;2023-07-13T00:22:48;16.20;99.90
41481;DHT22;27217;51.220;5.308;2023-07-13T00:25:14;16.20;99.90
41481;DHT22;27217;51.220;5.308;2023-07-13T00:27:42;16.40;99.90
41481;DHT22;27217;51.220;5.308;2023-07-13T00:30:08;16.60;99.90
41481;DHT22;27217;51.220;5.308;2023-07-13T00:32:34;16.50;99.90
41481;DHT22;27217;51.220;5.308;2023-07-13T00:35:02;16.30;99.90
41481;DHT22;27217;51.220;5.308;2023-07-13T00:37:31;16.30;99.90
41481;DHT22;27217;51.220;5.308;2023-07-13T00:39:57;16.20;99.90
41481;DHT22;27217;51.220;5.308;2023-07-13T00:42:23;16.20;99.90
41481;DHT22;27217;51.220;5.308;2023-07-13T00:46:02;16.10;99.90
41481;DHT22;27217;51.220;5.308;2023-07-13T00:47:52;16.20;99.90
41481;DHT22;27217;51.220;5.308;2023-07-13T00:50:20;16.40;99.90
41481;DHT22;27217;51.220;5.308;2023-07-13T00:52:52;16.20;99.90
41481;DHT22;27217;51.220;5.308;2023-07-13T00:55:20;16.50;99.90
41481;DHT22;27217;51.220;5.308;2023-07-13T00:57:47;16.40;99.90
41481;DHT22;27217;51.220;5.308;2023-07-13T01:00:13;16.20;99.90
41481;DHT22;27217;51.220;5.308;2023-07-13T01:02:42;15.90;99.90
41481;DHT22;27217;51.220;5.308;2023-07-13T01:05:13;16.00;99.90
41481;DHT22;27217;51.220;5.308;2023-07-13T01:07:42;16.10;99.90
41481;DHT22;27217;51.220;5.308;2023-07-13T01:10:09;15.80;99.90
41481;DHT22;27217;51.220;5.308;2023-07-13T01:12:35;15.70;99.90
41481;DHT22;27217;51.220;5.308;2023-07-13T01:15:03;15.80;99.90
41481;DHT22;27217;51.220;5.308;2023-07-13T01:17:31;16.10;99.90
41481;DHT22;27217;51.220;5.308;2023-07-13T01:19:57;16.10;99.90
41481;DHT22;27217;51.220;5.308;2023-07-13T01:22:22;16.30;99.90
41481;DHT22;27217;51.220;5.308;2023-07-13T01:24:52;16.30;99.90
41481;DHT22;27217;51.220;5.308;2023-07-13T01:27:22;16.30;99.90
41481;DHT22;27217;51.220;5.308;2023-07-13T01:29:52;16.20;99.90
41481;DHT22;27217;51.220;5.308;2023-07-13T01:32:22;15.80;99.90
41481;DHT22;27217;51.220;5.308;2023-07-13T01:34:53;15.60;99.90
41481;DHT22;27217;51.220;5.308;2023-07-13T01:37:38;15.70;99.90
41481;DHT22;27217;51.220;5.308;2023-07-13T01:40:05;15.40;99.90
41481;DHT22;27217;51.220;5.308;2023-07-13T01:42:31;15.60;99.90
41481;DHT22;27217;51.220;5.308;2023-07-13T01:44:57;15.40;99.90
41481;DHT22;27217;51.220;5.308;2023-07-13T01:47:23;15.50;99.90
41481;DHT22;27217;51.220;5.308;2023-07-13T01:49:51;15.30;99.90
41481;DHT22;27217;51.220;5.308;2023-07-13T01:52:17;15.50;99.90
41481;DHT22;27217;51.220;5.308;2023-07-13T01:54:43;15.80;99.90
41481;DHT22;27217;51.220;5.308;2023-07-13T01:57:10;16.00;99.90
41481;DHT22;27217;51.220;5.308;2023-07-13T01:59:35;15.60;99.90
41481;DHT22;27217;51.220;5.308;2023-07-13T02:02:01;15.50;99.90
41481;DHT22;27217;51.220;5.308;2023-07-13T02:04:27;15.30;99.90
41481;DHT22;27217;51.220;5.308;2023-07-13T02:06:52;15.20;99.90
41481;DHT22;27217;51.220;5.308;2023-07-13T02:09:21;15.20;99.90
41481;DHT22;27217;51.220;5.308;2023-07-13T02:11:47;15.10;99.90
41481;DHT22;27217;51.220;5.308;2023-07-13T02:14:14;15.00;99.90
41481;DHT22;27217;51.220;5.308;2023-07-13T02:16:41;15.10;99.90
41481;DHT22;27217;51.220;5.308;2023-07-13T02:19:07;15.00;99.90
41481;DHT22;27217;51.220;5.308;2023-07-13T02:21:33;15.20;99.90
41481;DHT22;27217;51.220;5.308;2023-07-13T02:23:59;15.40;99.90
41481;DHT22;27217;51.220;5.308;2023-07-13T02:26:25;15.40;99.90
41481;DHT22;27217;51.220;5.308;2023-07-13T02:28:51;14.80;99.90
41481;DHT22;27217;51.220;5.308;2023-07-13T02:31:17;15.40;99.90
41481;DHT22;27217;51.220;5.308;2023-07-13T02:33:44;15.20;99.90
41481;DHT22;27217;51.220;5.308;2023-07-13T02:36:10;15.00;99.90
41481;DHT22;27217;51.220;5.308;2023-07-13T02:38:36;15.00;99.90
41481;DHT22;27217;51.220;5.308;2023-07-13T02:41:03;14.90;99.90
41481;DHT22;27217;51.220;5.308;2023-07-13T02:43:29;14.90;99.90
41481;DHT22;27217;51.220;5.308;2023-07-13T02:45:55;15.30;99.90
41481;DHT22;27217;51.220;5.308;2023-07-13T02:48:21;15.60;99.90
41481;DHT22;27217;51.220;5.308;2023-07-13T02:50:48;15.30;99.90
41481;DHT22;27217;51.220;5.308;2023-07-13T02:53:14;15.20;99.90
41481;DHT22;27217;51.220;5.308;2023-07-13T02:55:40;15.40;99.90
41481;DHT22;27217;51.220;5.308;2023-07-13T02:58:06;15.50;99.90
41481;DHT22;27217;51.220;5.308;2023-07-13T03:00:32;15.50;99.90
41481;DHT22;27217;51.220;5.308;2023-07-13T03:02:59;15.50;99.90
41481;DHT22;27217;51.220;5.308;2023-07-13T03:05:25;15.60;99.90
41481;DHT22;27217;51.220;5.308;2023-07-13T03:07:51;15.60;99.90
41481;DHT22;27217;51.220;5.308;2023-07-13T03:10:17;15.40;99.90
41481;DHT22;27217;51.220;5.308;2023-07-13T03:12:43;15.50;99.90
41481;DHT22;27217;51.220;5.308;2023-07-13T03:15:09;15.50;99.90
41481;DHT22;27217;51.220;5.308;2023-07-13T03:17:35;15.80;99.90
41481;DHT22;27217;51.220;5.308;2023-07-13T03:20:01;15.70;99.90
41481;DHT22;27217;51.220;5.308;2023-07-13T03:22:27;15.70;99.90
41481;DHT22;27217;51.220;5.308;2023-07-13T03:24:55;15.60;99.90
41481;DHT22;27217;51.220;5.308;2023-07-13T03:27:21;15.70;99.90
41481;DHT22;27217;51.220;5.308;2023-07-13T03:29:51;15.90;99.90
41481;DHT22;27217;51.220;5.308;2023-07-13T03:32:16;15.80;99.90
41481;DHT22;27217;51.220;5.308;2023-07-13T03:34:42;15.80;99.90
41481;DHT22;27217;51.220;5.308;2023-07-13T03:37:08;15.90;99.90
41481;DHT22;27217;51.220;5.308;2023-07-13T03:39:34;15.90;99.90
41481;DHT22;27217;51.220;5.308;2023-07-13T03:42:00;16.10;99.90
41481;DHT22;27217;51.220;5.308;2023-07-13T03:44:29;15.90;99.90
41481;DHT22;27217;51.220;5.308;2023-07-13T03:46:55;15.80;99.90
41481;DHT22;27217;51.220;5.308;2023-07-13T03:49:21;16.00;99.90
41481;DHT22;27217;51.220;5.308;2023-07-13T03:51:47;16.00;99.90
41481;DHT22;27217;51.220;5.308;2023-07-13T03:54:14;16.20;99.90
41481;DHT22;27217;51.220;5.308;2023-07-13T03:56:39;16.10;99.90
41481;DHT22;27217;51.220;5.308;2023-07-13T03:59:05;16.10;99.90
41481;DHT22;27217;51.220;5.308;2023-07-13T04:01:33;16.10;99.90
41481;DHT22;27217;51.220;5.308;2023-07-13T04:04:00;16.10;99.90
41481;DHT22;27217;51.220;5.308;2023-07-13T04:06:28;16.00;99.90
41481;DHT22;27217;51.220;5.308;2023-07-13T04:08:58;16.00;99.90
41481;DHT22;27217;51.220;5.308;2023-07-13T04:11:27;16.20;99.90
41481;DHT22;27217;51.220;5.308;2023-07-13T04:13:53;16.20;99.90
41481;DHT22;27217;51.220;5.308;2023-07-13T04:16:19;16.20;99.90
41481;DHT22;27217;51.220;5.308;2023-07-13T04:18:46;16.00;99.90
41481;DHT22;27217;51.220;5.308;2023-07-13T04:21:14;16.00;99.90
41481;DHT22;27217;51.220;5.308;2023-07-13T04:23:40;16.00;99.90
41481;DHT22;27217;51.220;5.308;2023-07-13T04:26:06;16.20;99.90
41481;DHT22;27217;51.220;5.308;2023-07-13T04:28:33;16.20;99.90
41481;DHT22;27217;51.220;5.308;2023-07-13T04:30:59;16.00;99.90
41481;DHT22;27217;51.220;5.308;2023-07-13T04:33:25;16.10;99.90
41481;DHT22;27217;51.220;5.308;2023-07-13T04:35:53;16.10;99.90
41481;DHT22;27217;51.220;5.308;2023-07-13T04:38:20;16.00;99.90
41481;DHT22;27217;51.220;5.308;2023-07-13T04:40:46;16.30;99.90
41481;DHT22;27217;51.220;5.308;2023-07-13T04:43:13;16.20;99.90
41481;DHT22;27217;51.220;5.308;2023-07-13T04:45:39;16.50;99.90
41481;DHT22;27217;51.220;5.308;2023-07-13T04:48:05;16.60;99.90
41481;DHT22;27217;51.220;5.308;2023-07-13T04:50:31;16.60;99.90
41481;DHT22;27217;51.220;5.308;2023-07-13T04:52:57;16.40;99.90
41481;DHT22;27217;51.220;5.308;2023-07-13T04:55:24;16.60;99.90
41481;DHT22;27217;51.220;5.308;2023-07-13T04:57:51;16.70;99.90
41481;DHT22;27217;51.220;5.308;2023-07-13T05:00:17;16.60;99.90
41481;DHT22;27217;51.220;5.308;2023-07-13T05:02:45;16.50;99.90
41481;DHT22;27217;51.220;5.308;2023-07-13T05:05:11;16.40;99.90
41481;DHT22;27217;51.220;5.308;2023-07-13T05:07:37;16.50;99.90
41481;DHT22;27217;51.220;5.308;2023-07-13T05:10:03;16.80;99.90
41481;DHT22;27217;51.220;5.308;2023-07-13T05:12:30;16.70;99.90
41481;DHT22;27217;51.220;5.308;2023-07-13T05:14:56;16.50;99.90
41481;DHT22;27217;51.220;5.308;2023-07-13T05:17:21;16.50;99.90
41481;DHT22;27217;51.220;5.308;2023-07-13T05:19:47;16.60;99.90
41481;DHT22;27217;51.220;5.308;2023-07-13T05:22:13;16.70;99.90
41481;DHT22;27217;51.220;5.308;2023-07-13T05:24:39;16.80;99.90
41481;DHT22;27217;51.220;5.308;2023-07-13T05:27:05;16.50;99.90
41481;DHT22;27217;51.220;5.308;2023-07-13T05:29:34;16.70;99.90
41481;DHT22;27217;51.220;5.308;2023-07-13T05:32:00;16.70;99.90
41481;DHT22;27217;51.220;5.308;2023-07-13T05:34:26;16.60;99.90
41481;DHT22;27217;51.220;5.308;2023-07-13T05:36:52;16.80;99.90
41481;DHT22;27217;51.220;5.308;2023-07-13T05:39:18;17.00;99.90
41481;DHT22;27217;51.220;5.308;2023-07-13T05:41:44;16.90;99.90
41481;DHT22;27217;51.220;5.308;2023-07-13T05:44:10;16.80;99.90
41481;DHT22;27217;51.220;5.308;2023-07-13T05:46:36;16.70;99.90
41481;DHT22;27217;51.220;5.308;2023-07-13T05:49:02;16.70;99.90
41481;DHT22;27217;51.220;5.308;2023-07-13T05:51:28;16.50;99.90
41481;DHT22;27217;51.220;5.308;2023-07-13T05:53:54;16.60;99.90
41481;DHT22;27217;51.220;5.308;2023-07-13T05:56:20;16.50;99.90
41481;DHT22;27217;51.220;5.308;2023-07-13T05:58:47;16.90;99.90
41481;DHT22;27217;51.220;5.308;2023-07-13T06:01:14;16.90;99.90
41481;DHT22;27217;51.220;5.308;2023-07-13T06:03:41;17.10;99.90
41481;DHT22;27217;51.220;5.308;2023-07-13T06:06:09;17.00;99.90
41481;DHT22;27217;51.220;5.308;2023-07-13T06:08:36;17.00;99.90
41481;DHT22;27217;51.220;5.308;2023-07-13T06:11:23;16.80;99.90
41481;DHT22;27217;51.220;5.308;2023-07-13T06:13:49;17.20;99.90
41481;DHT22;27217;51.220;5.308;2023-07-13T06:16:16;17.00;99.90
41481;DHT22;27217;51.220;5.308;2023-07-13T06:18:43;17.20;99.90
41481;DHT22;27217;51.220;5.308;2023-07-13T06:21:18;18.00;99.90
41481;DHT22;27217;51.220;5.308;2023-07-13T06:23:46;17.10;99.90
41481;DHT22;27217;51.220;5.308;2023-07-13T06:26:13;17.00;99.90
41481;DHT22;27217;51.220;5.308;2023-07-13T06:28:39;17.30;99.90
41481;DHT22;27217;51.220;5.308;2023-07-13T06:31:09;17.50;99.90
41481;DHT22;27217;51.220;5.308;2023-07-13T06:33:35;17.40;99.90
41481;DHT22;27217;51.220;5.308;2023-07-13T06:36:03;17.10;99.90
41481;DHT22;27217;51.220;5.308;2023-07-13T06:38:29;17.30;99.90
41481;DHT22;27217;51.220;5.308;2023-07-13T06:40:55;17.60;99.90
41481;DHT22;27217;51.220;5.308;2023-07-13T06:43:20;17.60;99.90
41481;DHT22;27217;51.220;5.308;2023-07-13T06:45:47;17.50;99.90
41481;DHT22;27217;51.220;5.308;2023-07-13T06:48:15;17.40;99.90
41481;DHT22;27217;51.220;5.308;2023-07-13T06:50:43;17.60;99.90
41481;DHT22;27217;51.220;5.308;2023-07-13T06:53:10;18.10;99.90
41481;DHT22;27217;51.220;5.308;2023-07-13T06:55:37;18.20;99.90
41481;DHT22;27217;51.220;5.308;2023-07-13T06:58:03;18.20;99.90
41481;DHT22;27217;51.220;5.308;2023-07-13T07:00:29;18.10;99.90
41481;DHT22;27217;51.220;5.308;2023-07-13T07:02:54;18.60;99.90
41481;DHT22;27217;51.220;5.308;2023-07-13T07:05:21;18.40;99.90
41481;DHT22;27217;51.220;5.308;2023-07-13T07:07:51;18.00;99.90
41481;DHT22;27217;51.220;5.308;2023-07-13T07:10:18;18.10;99.90
41481;DHT22;27217;51.220;5.308;2023-07-13T07:12:44;18.20;99.90
41481;DHT22;27217;51.220;5.308;2023-07-13T07:15:10;18.20;99.90
41481;DHT22;27217;51.220;5.308;2023-07-13T07:17:36;18.10;99.90
41481;DHT22;27217;51.220;5.308;2023-07-13T07:20:03;18.10;99.90
41481;DHT22;27217;51.220;5.308;2023-07-13T07:22:30;18.50;99.90
41481;DHT22;27217;51.220;5.308;2023-07-13T07:24:57;18.50;99.90
41481;DHT22;27217;51.220;5.308;2023-07-13T07:27:23;18.80;99.90
41481;DHT22;27217;51.220;5.308;2023-07-13T07:29:49;18.50;99.90
41481;DHT22;27217;51.220;5.308;2023-07-13T07:32:15;18.20;99.90
41481;DHT22;27217;51.220;5.308;2023-07-13T07:34:41;18.50;99.90
41481;DHT22;27217;51.220;5.308;2023-07-13T07:37:09;18.50;99.90
41481;DHT22;27217;51.220;5.308;2023-07-13T07:39:36;18.70;99.90
41481;DHT22;27217;51.220;5.308;2023-07-13T07:42:02;18.60;99.90
41481;DHT22;27217;51.220;5.308;2023-07-13T07:44:28;18.70;99.90
41481;DHT22;27217;51.220;5.308;2023-07-13T07:46:54;18.80;99.90
41481;DHT22;27217;51.220;5.308;2023-07-13T07:49:20;18.50;99.90
41481;DHT22;27217;51.220;5.308;2023-07-13T07:51:46;18.80;99.90
41481;DHT22;27217;51.220;5.308;2023-07-13T07:54:12;19.20;99.90
41481;DHT22;27217;51.220;5.308;2023-07-13T07:56:37;18.80;99.90
41481;DHT22;27217;51.220;5.308;2023-07-13T07:59:03;18.50;99.90
41481;DHT22;27217;51.220;5.308;2023-07-13T08:01:29;18.70;99.90
41481;DHT22;27217;51.220;5.308;2023-07-13T08:03:55;18.90;99.90
41481;DHT22;27217;51.220;5.308;2023-07-13T08:06:21;19.20;99.90
41481;DHT22;27217;51.220;5.308;2023-07-13T08:08:47;19.30;99.90
41481;DHT22;27217;51.220;5.308;2023-07-13T08:11:13;19.50;99.90
41481;DHT22;27217;51.220;5.308;2023-07-13T08:13:39;19.90;99.90
41481;DHT22;27217;51.220;5.308;2023-07-13T08:16:06;20.10;99.90
41481;DHT22;27217;51.220;5.308;2023-07-13T08:18:32;19.70;99.90
41481;DHT22;27217;51.220;5.308;2023-07-13T08:20:58;19.40;99.90
41481;DHT22;27217;51.220;5.308;2023-07-13T08:23:25;19.50;99.90
41481;DHT22;27217;51.220;5.308;2023-07-13T08:25:54;19.60;99.90
41481;DHT22;27217;51.220;5.308;2023-07-13T08:28:21;19.90;99.90
41481;DHT22;27217;51.220;5.308;2023-07-13T08:30:47;19.90;99.90
41481;DHT22;27217;51.220;5.308;2023-07-13T08:33:20;20.00;99.90
41481;DHT22;27217;51.220;5.308;2023-07-13T08:35:49;20.10;99.90
41481;DHT22;27217;51.220;5.308;2023-07-13T08:38:17;19.90;99.90
41481;DHT22;27217;51.220;5.308;2023-07-13T08:40:53;19.80;99.90
41481;DHT22;27217;51.220;5.308;2023-07-13T08:43:28;19.80;99.90
41481;DHT22;27217;51.220;5.308;2023-07-13T08:46:35;20.00;99.90
41481;DHT22;27217;51.220;5.308;2023-07-13T08:49:21;19.90;99.90
41481;DHT22;27217;51.220;5.308;2023-07-13T08:51:53;19.70;99.90
41481;DHT22;27217;51.220;5.308;2023-07-13T08:56:57;20.30;99.90
41481;DHT22;27217;51.220;5.308;2023-07-13T08:59:31;20.50;99.90
41481;DHT22;27217;51.220;5.308;2023-07-13T09:02:26;20.20;99.90
41481;DHT22;27217;51.220;5.308;2023-07-13T09:07:31;19.90;99.90
41481;DHT22;27217;51.220;5.308;2023-07-13T09:12:45;20.10;99.90
41481;DHT22;27217;51.220;5.308;2023-07-13T09:15:26;20.30;99.90
41481;DHT22;27217;51.220;5.308;2023-07-13T09:17:56;20.20;99.90
41481;DHT22;27217;51.220;5.308;2023-07-13T09:20:37;20.00;99.90
41481;DHT22;27217;51.220;5.308;2023-07-13T09:23:13;20.30;99.90
41481;DHT22;27217;51.220;5.308;2023-07-13T09:25:41;20.40;99.90
41481;DHT22;27217;51.220;5.308;2023-07-13T09:28:33;20.90;99.90
41481;DHT22;27217;51.220;5.308;2023-07-13T09:33:31;20.80;99.90
41481;DHT22;27217;51.220;5.308;2023-07-13T09:35:58;20.70;99.90
41481;DHT22;27217;51.220;5.308;2023-07-13T09:38:28;21.20;99.90
41481;DHT22;27217;51.220;5.308;2023-07-13T09:44:08;21.20;99.90
41481;DHT22;27217;51.220;5.308;2023-07-13T09:46:37;21.50;99.90
41481;DHT22;27217;51.220;5.308;2023-07-13T09:49:03;21.60;99.90
41481;DHT22;27217;51.220;5.308;2023-07-13T09:51:29;21.90;99.90
41481;DHT22;27217;51.220;5.308;2023-07-13T09:53:56;22.10;99.90
41481;DHT22;27217;51.220;5.308;2023-07-13T09:56:28;21.90;99.90
41481;DHT22;27217;51.220;5.308;2023-07-13T09:58:55;21.50;99.90
41481;DHT22;27217;51.220;5.308;2023-07-13T10:01:34;21.70;99.90
41481;DHT22;27217;51.220;5.308;2023-07-13T10:04:00;21.90;99.90
41481;DHT22;27217;51.220;5.308;2023-07-13T10:06:26;22.00;99.90
41481;DHT22;27217;51.220;5.308;2023-07-13T10:08:55;21.70;99.90
41481;DHT22;27217;51.220;5.308;2023-07-13T10:11:24;22.00;99.90
41481;DHT22;27217;51.220;5.308;2023-07-13T10:14:18;21.60;99.90
41481;DHT22;27217;51.220;5.308;2023-07-13T10:16:47;21.40;99.90
41481;DHT22;27217;51.220;5.308;2023-07-13T10:19:24;21.70;99.90
41481;DHT22;27217;51.220;5.308;2023-07-13T10:21:56;22.30;99.90
41481;DHT22;27217;51.220;5.308;2023-07-13T10:24:25;22.60;99.90
41481;DHT22;27217;51.220;5.308;2023-07-13T10:27:13;22.40;99.90
41481;DHT22;27217;51.220;5.308;2023-07-13T10:29:48;21.70;99.90
41481;DHT22;27217;51.220;5.308;2023-07-13T10:32:15;20.50;99.90
41481;DHT22;27217;51.220;5.308;2023-07-13T10:34:44;19.40;99.90
41481;DHT22;27217;51.220;5.308;2023-07-13T10:37:38;18.50;99.90
41481;DHT22;27217;51.220;5.308;2023-07-13T10:40:12;18.20;99.90
41481;DHT22;27217;51.220;5.308;2023-07-13T10:42:41;18.30;99.90
41481;DHT22;27217;51.220;5.308;2023-07-13T10:45:14;18.60;99.90
41481;DHT22;27217;51.220;5.308;2023-07-13T10:47:40;18.80;99.90
41481;DHT22;27217;51.220;5.308;2023-07-13T10:50:22;19.20;99.90
41481;DHT22;27217;51.220;5.308;2023-07-13T10:52:53;19.20;99.90
41481;DHT22;27217;51.220;5.308;2023-07-13T10:55:54;19.20;99.90
41481;DHT22;27217;51.220;5.308;2023-07-13T10:58:36;19.50;99.90
41481;DHT22;27217;51.220;5.308;2023-07-13T11:01:03;19.90;99.90
41481;DHT22;27217;51.220;5.308;2023-07-13T11:03:38;20.30;99.90
41481;DHT22;27217;51.220;5.308;2023-07-13T11:06:17;20.30;99.90
41481;DHT22;27217;51.220;5.308;2023-07-13T11:27:38;20.30;99.90
41481;DHT22;27217;51.220;5.308;2023-07-13T11:35:59;20.60;99.90
41481;DHT22;27217;51.220;5.308;2023-07-13T11:38:30;20.20;99.90
41481;DHT22;27217;51.220;5.308;2023-07-13T11:41:01;20.50;99.90
41481;DHT22;27217;51.220;5.308;2023-07-13T11:43:29;20.60;99.90
41481;DHT22;27217;51.220;5.308;2023-07-13T11:45:55;20.80;99.90
41481;DHT22;27217;51.220;5.308;2023-07-13T11:48:28;20.30;99.90
41481;DHT22;27217;51.220;5.308;2023-07-13T11:50:57;20.20;99.90
41481;DHT22;27217;51.220;5.308;2023-07-13T11:53:28;20.50;99.90
41481;DHT22;27217;51.220;5.308;2023-07-13T11:55:54;20.40;99.90
41481;DHT22;27217;51.220;5.308;2023-07-13T11:58:23;20.50;99.90
41481;DHT22;27217;51.220;5.308;2023-07-13T12:00:51;21.10;99.90
41481;DHT22;27217;51.220;5.308;2023-07-13T12:03:21;21.40;99.90
41481;DHT22;27217;51.220;5.308;2023-07-13T12:06:06;22.70;99.90
41481;DHT22;27217;51.220;5.308;2023-07-13T12:08:45;24.00;99.90
41481;DHT22;27217;51.220;5.308;2023-07-13T12:11:16;24.30;99.90
41481;DHT22;27217;51.220;5.308;2023-07-13T12:13:44;24.20;99.90
41481;DHT22;27217;51.220;5.308;2023-07-13T12:18:45;26.00;99.30
41481;DHT22;27217;51.220;5.308;2023-07-13T12:21:13;27.60;94.40
41481;DHT22;27217;51.220;5.308;2023-07-13T12:23:39;27.90;87.60
41481;DHT22;27217;51.220;5.308;2023-07-13T12:26:09;27.20;91.40
41481;DHT22;27217;51.220;5.308;2023-07-13T12:28:40;25.20;94.40
41481;DHT22;27217;51.220;5.308;2023-07-13T12:31:41;23.20;99.90
41481;DHT22;27217;51.220;5.308;2023-07-13T12:34:14;23.00;99.90
41481;DHT22;27217;51.220;5.308;2023-07-13T12:39:19;22.30;99.90
41481;DHT22;27217;51.220;5.308;2023-07-13T12:41:48;22.10;99.90
41481;DHT22;27217;51.220;5.308;2023-07-13T12:44:17;22.00;99.90
41481;DHT22;27217;51.220;5.308;2023-07-13T12:46:54;22.20;99.90
41481;DHT22;27217;51.220;5.308;2023-07-13T12:49:27;22.20;99.90
41481;DHT22;27217;51.220;5.308;2023-07-13T12:51:59;21.00;99.90
41481;DHT22;27217;51.220;5.308;2023-07-13T12:54:26;19.90;99.90
41481;DHT22;27217;51.220;5.308;2023-07-13T12:56:54;19.50;99.90
41481;DHT22;27217;51.220;5.308;2023-07-13T12:59:23;19.30;99.90
41481;DHT22;27217;51.220;5.308;2023-07-13T13:01:51;19.20;99.90
41481;DHT22;27217;51.220;5.308;2023-07-13T13:04:19;19.10;99.90
41481;DHT22;27217;51.220;5.308;2023-07-13T13:06:48;18.90;99.90
41481;DHT22;27217;51.220;5.308;2023-07-13T13:09:16;19.10;99.90
41481;DHT22;27217;51.220;5.308;2023-07-13T13:11:43;19.40;99.90
41481;DHT22;27217;51.220;5.308;2023-07-13T13:14:09;19.40;99.90
41481;DHT22;27217;51.220;5.308;2023-07-13T13:16:48;18.80;99.90
41481;DHT22;27217;51.220;5.308;2023-07-13T13:19:29;18.90;99.90
41481;DHT22;27217;51.220;5.308;2023-07-13T13:21:56;19.10;99.90
41481;DHT22;27217;51.220;5.308;2023-07-13T13:24:25;18.90;99.90
41481;DHT22;27217;51.220;5.308;2023-07-13T13:26:53;18.80;99.90
41481;DHT22;27217;51.220;5.308;2023-07-13T13:29:21;18.70;99.90
41481;DHT22;27217;51.220;5.308;2023-07-13T13:31:49;18.30;99.90
41481;DHT22;27217;51.220;5.308;2023-07-13T13:34:18;18.10;99.90
41481;DHT22;27217;51.220;5.308;2023-07-13T13:36:46;18.20;99.90
41481;DHT22;27217;51.220;5.308;2023-07-13T13:39:25;18.10;99.90
41481;DHT22;27217;51.220;5.308;2023-07-13T13:41:53;18.00;99.90
41481;DHT22;27217;51.220;5.308;2023-07-13T13:44:20;17.70;99.90
41481;DHT22;27217;51.220;5.308;2023-07-13T13:46:50;17.40;99.90
41481;DHT22;27217;51.220;5.308;2023-07-13T13:49:19;17.40;99.90
41481;DHT22;27217;51.220;5.308;2023-07-13T13:51:47;17.50;99.90
41481;DHT22;27217;51.220;5.308;2023-07-13T13:54:14;17.40;99.90
41481;DHT22;27217;51.220;5.308;2023-07-13T13:56:42;17.50;99.90
41481;DHT22;27217;51.220;5.308;2023-07-13T13:59:09;17.70;99.90
41481;DHT22;27217;51.220;5.308;2023-07-13T14:01:36;17.80;99.90
41481;DHT22;27217;51.220;5.308;2023-07-13T14:04:03;17.90;99.90
41481;DHT22;27217;51.220;5.308;2023-07-13T14:06:29;18.20;99.90
41481;DHT22;27217;51.220;5.308;2023-07-13T14:08:55;18.30;99.90
41481;DHT22;27217;51.220;5.308;2023-07-13T14:11:24;18.50;99.90
41481;DHT22;27217;51.220;5.308;2023-07-13T14:13:56;18.60;99.90
41481;DHT22;27217;51.220;5.308;2023-07-13T14:16:29;19.00;99.90
41481;DHT22;27217;51.220;5.308;2023-07-13T14:18:55;19.20;99.90
41481;DHT22;27217;51.220;5.308;2023-07-13T14:21:24;19.40;99.90
41481;DHT22;27217;51.220;5.308;2023-07-13T14:23:50;19.40;99.90
41481;DHT22;27217;51.220;5.308;2023-07-13T14:26:21;19.50;99.90
41481;DHT22;27217;51.220;5.308;2023-07-13T14:28:48;19.60;99.90
41481;DHT22;27217;51.220;5.308;2023-07-13T14:31:16;19.70;99.90
41481;DHT22;27217;51.220;5.308;2023-07-13T14:33:43;20.10;99.90
41481;DHT22;27217;51.220;5.308;2023-07-13T14:36:28;20.50;99.90
41481;DHT22;27217;51.220;5.308;2023-07-13T14:38:55;20.90;99.90
41481;DHT22;27217;51.220;5.308;2023-07-13T14:41:21;21.00;99.90
41481;DHT22;27217;51.220;5.308;2023-07-13T14:43:48;21.10;99.90
41481;DHT22;27217;51.220;5.308;2023-07-13T14:46:36;20.80;99.90
41481;DHT22;27217;51.220;5.308;2023-07-13T14:51:45;20.60;99.90
41481;DHT22;27217;51.220;5.308;2023-07-13T14:54:11;21.10;99.90
41481;DHT22;27217;51.220;5.308;2023-07-13T14:56:37;21.00;99.90
41481;DHT22;27217;51.220;5.308;2023-07-13T14:59:04;21.50;99.90
41481;DHT22;27217;51.220;5.308;2023-07-13T15:01:30;22.00;99.90
41481;DHT22;27217;51.220;5.308;2023-07-13T15:03:57;22.70;99.90
41481;DHT22;27217;51.220;5.308;2023-07-13T15:06:23;22.40;99.90
41481;DHT22;27217;51.220;5.308;2023-07-13T15:08:49;22.50;99.90
41481;DHT22;27217;51.220;5.308;2023-07-13T15:11:15;23.70;99.90
41481;DHT22;27217;51.220;5.308;2023-07-13T15:13:44;25.00;99.90
41481;DHT22;27217;51.220;5.308;2023-07-13T15:16:24;26.40;95.30
41481;DHT22;27217;51.220;5.308;2023-07-13T15:18:51;25.50;97.10
41481;DHT22;27217;51.220;5.308;2023-07-13T15:21:22;26.60;93.20
41481;DHT22;27217;51.220;5.308;2023-07-13T15:23:50;28.20;88.60
41481;DHT22;27217;51.220;5.308;2023-07-13T15:26:17;28.50;81.50
41481;DHT22;27217;51.220;5.308;2023-07-13T15:28:46;27.00;86.50
41481;DHT22;27217;51.220;5.308;2023-07-13T15:31:19;26.60;87.10
41481;DHT22;27217;51.220;5.308;2023-07-13T15:33:46;26.10;87.90
41481;DHT22;27217;51.220;5.308;2023-07-13T15:36:14;25.60;90.40
41481;DHT22;27217;51.220;5.308;2023-07-13T15:38:40;27.00;84.10
41481;DHT22;27217;51.220;5.308;2023-07-13T15:41:25;27.40;82.80
41481;DHT22;27217;51.220;5.308;2023-07-13T15:43:53;27.90;80.10
41481;DHT22;27217;51.220;5.308;2023-07-13T15:46:21;28.50;78.60
41481;DHT22;27217;51.220;5.308;2023-07-13T15:48:49;27.40;80.90
41481;DHT22;27217;51.220;5.308;2023-07-13T15:51:26;27.40;79.40
41481;DHT22;27217;51.220;5.308;2023-07-13T15:53:59;28.00;79.50
41481;DHT22;27217;51.220;5.308;2023-07-13T15:56:27;27.70;77.90
41481;DHT22;27217;51.220;5.308;2023-07-13T15:58:54;27.30;81.50
41481;DHT22;27217;51.220;5.308;2023-07-13T16:01:22;27.00;83.70
41481;DHT22;27217;51.220;5.308;2023-07-13T16:03:49;27.70;80.00
41481;DHT22;27217;51.220;5.308;2023-07-13T16:06:20;29.10;74.40
41481;DHT22;27217;51.220;5.308;2023-07-13T16:08:48;29.60;71.50
41481;DHT22;27217;51.220;5.308;2023-07-13T16:11:27;27.60;76.30
41481;DHT22;27217;51.220;5.308;2023-07-13T16:13:53;26.10;82.00
41481;DHT22;27217;51.220;5.308;2023-07-13T16:16:24;25.50;85.90
41481;DHT22;27217;51.220;5.308;2023-07-13T16:18:56;24.60;92.90
41481;DHT22;27217;51.220;5.308;2023-07-13T16:21:23;24.10;94.90
41481;DHT22;27217;51.220;5.308;2023-07-13T16:23:50;24.80;93.20
41481;DHT22;27217;51.220;5.308;2023-07-13T16:26:34;25.20;91.00